Mount Carmel, South Carolina
Current Conditions -  °F | °C
As of 5:55 PM on Wednesday 26 Nov 2014 (Local Time) from KIIY Reporting Station
Clear Clear  
Wind Chill: 52°   Ceiling: Unl
Heat Index: 52°   Visibility: 10mi
Dew Point: 34°   Wind: 5mph
Humidity: 50%   Direction: 250°WSW
Pressure: 30.06"   Gusts: NA
Location:  34.01°N, 82.51°W
Report Text: KIIY 262255Z AUTO 25004KT 10SM CLR 11/01 A3006 RMK AO2
Loading
Personal Weather Stations






























Interactive Weather Map New forecast layout! Learn more

10-Day Weather Forecast

Advertisements
Track Severe Weather on mobile